createdAt,value
2022-08-28T00:00:15.753Z,17.42
2022-08-28T00:02:43.303Z,17.32
2022-08-28T00:05:11.617Z,17.34
2022-08-28T00:07:38.851Z,17.31
2022-08-28T00:10:08.245Z,17.27
2022-08-28T00:12:35.636Z,17.32
2022-08-28T00:15:06.295Z,17.37
2022-08-28T00:17:36.535Z,17.37
2022-08-28T00:20:07.665Z,17.35
2022-08-28T00:22:34.232Z,17.35
2022-08-28T00:25:00.756Z,17.35
2022-08-28T00:27:45.490Z,17.33
2022-08-28T00:30:12.169Z,17.34
2022-08-28T00:32:38.736Z,17.38
2022-08-28T00:35:05.392Z,17.35
2022-08-28T00:37:32.009Z,17.34
2022-08-28T00:39:58.604Z,17.39
2022-08-28T00:42:25.214Z,17.44
2022-08-28T00:44:51.756Z,17.51
2022-08-28T00:47:18.572Z,17.50
2022-08-28T00:49:52.810Z,17.45
2022-08-28T00:52:21.701Z,17.47
2022-08-28T00:54:59.064Z,17.43
2022-08-28T00:57:41.004Z,17.45
2022-08-28T01:00:21.464Z,17.42
2022-08-28T01:02:48.244Z,17.44
2022-08-28T01:05:16.517Z,17.42
2022-08-28T01:07:44.554Z,17.42
2022-08-28T01:10:15.461Z,17.44
2022-08-28T01:12:42.341Z,17.42
2022-08-28T01:15:14.374Z,17.43
2022-08-28T01:17:46.397Z,17.43
2022-08-28T01:20:18.606Z,17.46
2022-08-28T01:22:59.229Z,17.42
2022-08-28T01:25:30.681Z,17.44
2022-08-28T01:27:58.385Z,17.43
2022-08-28T01:30:25.326Z,17.39
2022-08-28T01:32:54.548Z,17.39
2022-08-28T01:35:28.516Z,17.40
2022-08-28T01:37:55.976Z,17.37
2022-08-28T01:40:38.756Z,17.34
2022-08-28T01:43:11.829Z,17.42
2022-08-28T01:45:41.695Z,17.40
2022-08-28T01:48:08.705Z,17.40
2022-08-28T01:50:36.101Z,17.45
2022-08-28T01:53:04.929Z,17.50
2022-08-28T01:55:35.712Z,17.50
2022-08-28T01:58:05.612Z,17.50
2022-08-28T02:00:32.323Z,17.50
2022-08-28T02:03:00.900Z,17.49
2022-08-28T02:05:31.063Z,17.49
2022-08-28T02:07:58.924Z,17.47
2022-08-28T02:10:27.275Z,17.50
2022-08-28T02:12:55.773Z,17.46
2022-08-28T02:15:27.267Z,17.50
2022-08-28T02:17:54.233Z,17.50
2022-08-28T02:20:21.188Z,17.46
2022-08-28T02:22:48.344Z,17.50
2022-08-28T02:25:15.076Z,17.48
2022-08-28T02:27:41.692Z,17.51
2022-08-28T02:30:11.683Z,17.50
2022-08-28T02:32:38.435Z,17.52
2022-08-28T02:35:06.942Z,17.48
2022-08-28T02:37:39.694Z,17.52
2022-08-28T02:40:07.037Z,17.55
2022-08-28T02:42:33.627Z,17.58
2022-08-28T02:45:00.961Z,17.62
2022-08-28T02:47:27.627Z,17.62
2022-08-28T02:49:54.143Z,17.63
2022-08-28T02:52:21.864Z,17.62
2022-08-28T02:54:48.545Z,17.68
2022-08-28T02:57:15.267Z,17.62
2022-08-28T02:59:43.376Z,17.59
2022-08-28T03:02:10.172Z,17.66
2022-08-28T03:04:37.739Z,17.60
2022-08-28T03:07:11.733Z,17.57
2022-08-28T03:09:38.333Z,17.53
2022-08-28T03:12:05.032Z,17.62
2022-08-28T03:14:31.537Z,17.63
2022-08-28T03:16:58.181Z,17.58
2022-08-28T03:19:24.733Z,17.60
2022-08-28T03:21:53.983Z,17.57
2022-08-28T03:24:20.603Z,17.58
2022-08-28T03:26:47.240Z,17.61
2022-08-28T03:29:13.916Z,17.60
2022-08-28T03:31:40.458Z,17.65
2022-08-28T03:34:07.336Z,17.64
2022-08-28T03:36:34.342Z,17.64
2022-08-28T03:39:05.039Z,17.62
2022-08-28T03:41:32.669Z,17.56
2022-08-28T03:44:00.920Z,17.55
2022-08-28T03:46:32.228Z,17.53
2022-08-28T03:49:00.473Z,17.57
2022-08-28T03:51:31.344Z,17.55
2022-08-28T03:53:59.304Z,17.58
2022-08-28T03:56:28.605Z,17.54
2022-08-28T03:58:57.639Z,17.59
2022-08-28T04:01:25.082Z,17.49
2022-08-28T04:03:51.921Z,17.51
2022-08-28T04:06:19.768Z,17.50
2022-08-28T04:08:47.594Z,17.46
2022-08-28T04:11:14.332Z,17.50
2022-08-28T04:13:41.952Z,17.44
2022-08-28T04:16:11.520Z,17.49
2022-08-28T04:18:40.612Z,17.44
2022-08-28T04:21:19.564Z,17.46
2022-08-28T04:23:47.481Z,17.47
2022-08-28T04:26:17.960Z,17.45
2022-08-28T04:28:45.754Z,17.48
2022-08-28T04:31:12.340Z,17.47
2022-08-28T04:33:39.791Z,17.44
2022-08-28T04:36:11.211Z,17.42
2022-08-28T04:38:43.086Z,17.47
2022-08-28T04:41:13.370Z,17.50
2022-08-28T04:43:39.930Z,17.50
2022-08-28T04:46:09.998Z,17.50
2022-08-28T04:48:37.654Z,17.46
2022-08-28T04:51:09.443Z,17.52
2022-08-28T04:53:37.792Z,17.56
2022-08-28T04:56:10.080Z,17.53
2022-08-28T04:58:37.284Z,17.50
2022-08-28T05:01:10.108Z,17.54
2022-08-28T05:03:37.132Z,17.53
2022-08-28T05:06:04.622Z,17.56
2022-08-28T05:08:31.926Z,17.65
2022-08-28T05:11:08.673Z,17.62
2022-08-28T05:13:35.250Z,17.67
2022-08-28T05:16:03.838Z,17.67
2022-08-28T05:18:30.614Z,17.71
2022-08-28T05:20:57.584Z,17.70
2022-08-28T05:23:25.937Z,17.69
2022-08-28T05:25:53.119Z,17.69
2022-08-28T05:28:20.158Z,17.72
2022-08-28T05:30:46.915Z,17.76
2022-08-28T05:33:14.984Z,17.74
2022-08-28T05:35:44.205Z,17.82
2022-08-28T05:38:13.456Z,17.84
2022-08-28T05:40:42.920Z,17.83
2022-08-28T05:43:10.257Z,17.84
2022-08-28T05:45:36.829Z,17.93
2022-08-28T05:48:03.673Z,17.92
2022-08-28T05:50:31.338Z,17.81
2022-08-28T05:52:57.965Z,17.87
2022-08-28T05:55:24.482Z,17.88
2022-08-28T05:57:51.036Z,17.90
2022-08-28T06:00:18.371Z,17.94
2022-08-28T06:02:45.029Z,17.99
2022-08-28T06:05:12.617Z,17.99
2022-08-28T06:07:41.000Z,17.99
2022-08-28T06:10:08.281Z,18.10
2022-08-28T06:12:37.697Z,18.17
2022-08-28T06:15:05.562Z,18.18
2022-08-28T06:17:32.163Z,18.19
2022-08-28T06:19:58.685Z,18.35
2022-08-28T06:22:25.233Z,18.35
2022-08-28T06:24:51.989Z,18.31
2022-08-28T06:27:18.613Z,18.35
2022-08-28T06:29:45.815Z,18.39
2022-08-28T06:32:12.436Z,18.50
2022-08-28T06:34:39.398Z,18.55
2022-08-28T06:37:06.042Z,18.62
2022-08-28T06:39:32.650Z,18.61
2022-08-28T06:41:59.247Z,18.68
2022-08-28T06:44:25.782Z,18.68
2022-08-28T06:46:54.163Z,18.75
2022-08-28T06:49:21.257Z,18.68
2022-08-28T06:51:47.966Z,18.77
2022-08-28T06:54:21.785Z,18.79
2022-08-28T06:56:49.824Z,18.85
2022-08-28T06:59:16.395Z,18.85
2022-08-28T07:01:43.071Z,18.87
2022-08-28T07:04:11.534Z,18.84
2022-08-28T07:06:41.005Z,18.79
2022-08-28T07:09:11.024Z,18.68
2022-08-28T07:11:38.746Z,18.68
2022-08-28T07:14:06.482Z,18.67
2022-08-28T07:16:38.296Z,18.62
2022-08-28T07:19:10.509Z,18.68
2022-08-28T07:21:41.706Z,18.91
2022-08-28T07:24:10.604Z,18.99
2022-08-28T07:26:40.830Z,19.00
2022-08-28T07:29:10.035Z,19.07
2022-08-28T07:31:40.809Z,19.08
2022-08-28T07:34:07.670Z,19.04
2022-08-28T07:36:34.970Z,18.94
2022-08-28T07:39:01.578Z,19.04
2022-08-28T07:41:31.056Z,18.86
2022-08-28T07:44:16.299Z,18.92
2022-08-28T07:46:44.491Z,18.85
2022-08-28T07:49:11.882Z,18.84
2022-08-28T07:51:38.727Z,18.76
2022-08-28T07:54:05.647Z,18.89
2022-08-28T07:56:33.195Z,18.88
2022-08-28T07:59:01.295Z,18.83
2022-08-28T08:01:30.842Z,18.78
2022-08-28T08:04:01.331Z,18.76
2022-08-28T08:06:34.489Z,18.87
2022-08-28T08:09:02.338Z,18.86
2022-08-28T08:11:32.347Z,18.90
2022-08-28T08:14:04.753Z,18.98
2022-08-28T08:16:41.248Z,19.14
2022-08-28T08:19:10.146Z,19.18
2022-08-28T08:21:37.706Z,19.23
2022-08-28T08:24:04.538Z,19.32
2022-08-28T08:26:31.198Z,19.49
2022-08-28T08:28:58.939Z,19.50
2022-08-28T08:31:27.285Z,19.56
2022-08-28T08:33:56.558Z,19.67
2022-08-28T08:36:25.053Z,19.82
2022-08-28T08:38:59.885Z,19.86
2022-08-28T08:41:57.157Z,19.83
2022-08-28T08:44:45.219Z,19.89
2022-08-28T08:47:15.835Z,19.88
2022-08-28T08:49:54.560Z,19.82
2022-08-28T08:52:40.414Z,19.93
2022-08-28T08:55:15.125Z,20.17
2022-08-28T08:57:46.077Z,20.25
2022-08-28T09:00:16.816Z,20.34
2022-08-28T09:03:13.386Z,20.19
2022-08-28T09:05:48.202Z,20.32
2022-08-28T09:08:34.068Z,20.06
2022-08-28T09:11:07.017Z,20.16
2022-08-28T09:13:57.108Z,20.19
2022-08-28T09:16:35.469Z,20.39
2022-08-28T09:19:02.751Z,20.72
2022-08-28T09:21:33.715Z,21.34
2022-08-28T09:24:05.727Z,21.61
2022-08-28T09:26:34.035Z,21.79
2022-08-28T09:29:07.405Z,21.78
2022-08-28T09:31:39.403Z,21.90
2022-08-28T09:34:18.051Z,21.66
2022-08-28T09:36:44.807Z,21.43
2022-08-28T09:39:17.504Z,21.56
2022-08-28T09:42:08.964Z,21.14
2022-08-28T09:44:51.941Z,21.25
2022-08-28T09:47:34.564Z,21.13
2022-08-28T09:50:15.182Z,21.09
2022-08-28T09:52:41.862Z,21.25
2022-08-28T09:55:12.870Z,21.50
2022-08-28T09:57:46.462Z,21.84
2022-08-28T10:00:14.192Z,22.13
2022-08-28T10:02:43.580Z,22.36
2022-08-28T10:05:16.291Z,22.32
2022-08-28T10:07:54.936Z,22.56
2022-08-28T10:10:59.956Z,22.35
2022-08-28T10:13:36.896Z,23.01
2022-08-28T10:16:29.048Z,23.31
2022-08-28T10:19:12.791Z,23.43
2022-08-28T10:22:10.865Z,23.26
2022-08-28T10:24:53.413Z,24.10
2022-08-28T10:27:34.971Z,23.58
2022-08-28T10:30:12.369Z,23.86
2022-08-28T10:33:01.228Z,23.99
2022-08-28T10:35:43.933Z,23.76
2022-08-28T10:38:17.325Z,24.09
2022-08-28T10:41:08.517Z,24.75
2022-08-28T10:43:43.305Z,25.17
2022-08-28T10:46:16.520Z,25.58
2022-08-28T10:49:08.425Z,25.98
2022-08-28T10:51:44.345Z,27.15
2022-08-28T10:54:34.751Z,26.64
2022-08-28T10:57:24.817Z,26.89
2022-08-28T10:59:54.007Z,26.43
2022-08-28T11:02:23.413Z,26.03
2022-08-28T11:04:58.644Z,25.71
2022-08-28T11:07:34.515Z,25.81
2022-08-28T11:10:21.600Z,25.65
2022-08-28T11:12:51.691Z,25.97
2022-08-28T11:15:31.508Z,25.13
2022-08-28T11:18:15.811Z,23.89
2022-08-28T11:20:44.935Z,22.59
2022-08-28T11:23:20.251Z,21.79
2022-08-28T11:25:51.277Z,21.39
2022-08-28T11:28:43.147Z,21.16
2022-08-28T11:31:19.097Z,20.78
2022-08-28T11:33:56.135Z,20.68
2022-08-28T11:36:22.562Z,20.69
2022-08-28T11:38:51.835Z,20.67
2022-08-28T11:41:32.494Z,20.51
2022-08-28T11:44:08.149Z,20.58
2022-08-28T11:46:42.009Z,20.58
2022-08-28T11:49:23.749Z,20.59
2022-08-28T11:52:02.298Z,20.83
2022-08-28T11:54:50.247Z,20.93
2022-08-28T11:57:28.569Z,20.94
2022-08-28T12:00:23.979Z,21.00
2022-08-28T12:03:16.360Z,21.03
2022-08-28T12:05:45.806Z,20.97
2022-08-28T12:08:33.410Z,21.17
2022-08-28T12:11:00.045Z,21.05
2022-08-28T12:13:51.470Z,21.19
2022-08-28T12:16:18.424Z,21.45
2022-08-28T12:18:47.704Z,21.71
2022-08-28T12:21:21.672Z,22.11
2022-08-28T12:24:09.115Z,22.50
2022-08-28T12:26:42.625Z,22.87
2022-08-28T12:29:24.714Z,22.93
2022-08-28T12:32:26.126Z,23.23
2022-08-28T12:35:06.467Z,23.27
2022-08-28T12:37:52.480Z,23.49
2022-08-28T12:40:27.660Z,24.01
2022-08-28T12:42:59.076Z,24.34
2022-08-28T12:45:25.513Z,24.12
2022-08-28T12:47:56.298Z,23.89
2022-08-28T12:50:33.959Z,23.89
2022-08-28T12:53:05.062Z,23.79
2022-08-28T12:55:33.114Z,23.27
2022-08-28T12:58:00.236Z,22.95
2022-08-28T13:00:32.942Z,22.90
2022-08-28T13:03:00.637Z,22.95
2022-08-28T13:05:29.460Z,23.18
2022-08-28T13:07:57.186Z,23.06
2022-08-28T13:10:40.806Z,22.90
2022-08-28T13:13:18.552Z,22.95
2022-08-28T13:15:50.351Z,22.85
2022-08-28T13:19:01.308Z,22.50
2022-08-28T13:21:34.271Z,22.46
2022-08-28T13:24:27.131Z,22.27
2022-08-28T13:27:07.803Z,22.40
2022-08-28T13:29:35.503Z,22.84
2022-08-28T13:32:14.914Z,22.91
2022-08-28T13:34:47.653Z,22.51
2022-08-28T13:38:00.827Z,22.80
2022-08-28T13:40:57.016Z,23.11
2022-08-28T13:43:19.345Z,23.50
2022-08-28T13:45:50.942Z,23.70
2022-08-28T13:48:23.707Z,24.22
2022-08-28T13:50:54.798Z,24.75
2022-08-28T13:53:22.213Z,24.88
2022-08-28T13:55:50.711Z,25.18
2022-08-28T13:58:17.607Z,24.97
2022-08-28T14:00:47.241Z,24.98
2022-08-28T14:03:33.135Z,24.52
2022-08-28T14:05:59.909Z,24.42
2022-08-28T14:08:26.554Z,24.30
2022-08-28T14:10:53.230Z,23.79
2022-08-28T14:13:20.298Z,23.33
2022-08-28T14:15:47.527Z,23.34
2022-08-28T14:18:14.287Z,23.17
2022-08-28T14:20:40.903Z,23.03
2022-08-28T14:23:09.195Z,23.05
2022-08-28T14:25:42.235Z,23.03
2022-08-28T14:28:09.104Z,23.11
2022-08-28T14:30:35.772Z,23.06
2022-08-28T14:33:02.314Z,23.22
2022-08-28T14:35:28.851Z,23.06
2022-08-28T14:37:55.406Z,23.10
2022-08-28T14:40:21.977Z,23.31
2022-08-28T14:42:50.800Z,22.84
2022-08-28T14:45:17.330Z,22.99
2022-08-28T14:47:45.444Z,22.85
2022-08-28T14:50:12.187Z,22.80
2022-08-28T14:52:39.280Z,22.57
2022-08-28T14:55:06.179Z,22.53
2022-08-28T14:57:32.747Z,22.39
2022-08-28T14:59:59.304Z,22.17
2022-08-28T15:02:25.847Z,22.07
2022-08-28T15:04:52.460Z,21.82
2022-08-28T15:07:21.215Z,21.58
2022-08-28T15:09:48.196Z,21.54
2022-08-28T15:12:14.751Z,21.52
2022-08-28T15:14:54.555Z,21.39
2022-08-28T15:17:23.255Z,21.23
2022-08-28T15:20:00.998Z,20.99
2022-08-28T15:22:27.700Z,20.88
2022-08-28T15:24:55.610Z,20.70
2022-08-28T15:27:22.332Z,20.65
2022-08-28T15:29:48.845Z,20.64
2022-08-28T15:32:15.445Z,20.54
2022-08-28T15:34:44.305Z,19.99
2022-08-28T15:37:10.862Z,19.54
2022-08-28T15:39:58.631Z,19.48
2022-08-28T15:42:25.200Z,19.36
2022-08-28T15:44:52.008Z,19.37
2022-08-28T15:47:18.557Z,19.43
2022-08-28T15:49:48.887Z,19.40
2022-08-28T15:52:18.431Z,19.42
2022-08-28T15:54:45.018Z,19.53
2022-08-28T15:57:11.596Z,19.51
2022-08-28T15:59:49.071Z,19.48
2022-08-28T16:02:17.545Z,19.45
2022-08-28T16:04:44.153Z,19.40
2022-08-28T16:07:11.107Z,19.32
2022-08-28T16:09:37.661Z,19.31
2022-08-28T16:12:04.932Z,19.19
2022-08-28T16:14:33.688Z,19.22
2022-08-28T16:17:05.974Z,19.25
2022-08-28T16:19:40.018Z,19.23
2022-08-28T16:22:07.052Z,19.24
2022-08-28T16:24:33.684Z,19.22
2022-08-28T16:27:00.254Z,19.22
2022-08-28T16:29:26.827Z,19.15
2022-08-28T16:31:53.448Z,19.12
2022-08-28T16:34:20.274Z,19.16
2022-08-28T16:36:48.304Z,19.15
2022-08-28T16:39:15.141Z,19.13
2022-08-28T16:41:43.156Z,19.17
2022-08-28T16:44:09.739Z,19.21
2022-08-28T16:46:36.293Z,19.18
2022-08-28T16:49:03.296Z,19.09
2022-08-28T16:51:29.912Z,19.03
2022-08-28T16:53:56.907Z,18.99
2022-08-28T16:56:26.729Z,18.98
2022-08-28T16:58:53.585Z,18.90
2022-08-28T17:01:23.933Z,18.88
2022-08-28T17:03:52.367Z,18.84
2022-08-28T17:06:23.334Z,18.89
2022-08-28T17:08:55.932Z,18.80
2022-08-28T17:11:24.490Z,18.83
2022-08-28T17:13:51.229Z,18.75
2022-08-28T17:16:19.188Z,18.76
2022-08-28T17:18:47.338Z,18.70
2022-08-28T17:21:33.482Z,18.67
2022-08-28T17:24:00.097Z,18.67
2022-08-28T17:26:26.797Z,18.66
2022-08-28T17:28:53.370Z,18.75
2022-08-28T17:31:19.982Z,18.78
2022-08-28T17:33:46.624Z,18.74
2022-08-28T17:36:32.779Z,18.74
2022-08-28T17:39:04.149Z,18.76
2022-08-28T17:41:31.556Z,18.66
2022-08-28T17:43:59.524Z,18.58
2022-08-28T17:46:26.127Z,18.54
2022-08-28T17:48:55.547Z,18.50
2022-08-28T17:51:43.070Z,18.37
2022-08-28T17:54:18.396Z,18.32
2022-08-28T17:56:46.284Z,18.32
2022-08-28T17:59:14.160Z,18.24
2022-08-28T18:01:42.283Z,18.19
2022-08-28T18:04:09.385Z,18.15
2022-08-28T18:06:36.609Z,18.17
2022-08-28T18:09:04.380Z,18.15
2022-08-28T18:11:31.094Z,18.09
2022-08-28T18:13:57.760Z,18.04
2022-08-28T18:16:28.927Z,17.99
2022-08-28T18:18:57.808Z,18.00
2022-08-28T18:21:24.816Z,17.93
2022-08-28T18:23:51.381Z,17.94
2022-08-28T18:26:17.944Z,17.93
2022-08-28T18:28:44.849Z,17.93
2022-08-28T18:31:11.518Z,17.91
2022-08-28T18:33:38.360Z,17.94
2022-08-28T18:36:09.875Z,17.98
2022-08-28T18:38:36.517Z,18.03
2022-08-28T18:41:05.460Z,18.06
2022-08-28T18:43:32.370Z,18.03
2022-08-28T18:46:00.996Z,17.99
2022-08-28T18:48:28.523Z,17.96
2022-08-28T18:50:55.148Z,17.94
2022-08-28T18:53:22.731Z,17.95
2022-08-28T18:55:52.154Z,17.92
2022-08-28T18:58:21.241Z,17.87
2022-08-28T19:00:48.797Z,17.86
2022-08-28T19:03:15.735Z,17.81
2022-08-28T19:05:42.335Z,17.73
2022-08-28T19:08:09.118Z,17.70
2022-08-28T19:10:36.949Z,17.64
2022-08-28T19:13:05.032Z,17.62
2022-08-28T19:15:32.024Z,17.57
2022-08-28T19:18:00.455Z,17.52
2022-08-28T19:20:28.111Z,17.51
2022-08-28T19:22:56.280Z,17.48
2022-08-28T19:25:28.457Z,17.43
2022-08-28T19:27:58.876Z,17.38
2022-08-28T19:30:34.995Z,17.35
2022-08-28T19:33:04.755Z,17.34
2022-08-28T19:35:31.631Z,17.30
2022-08-28T19:37:58.232Z,17.27
2022-08-28T19:40:24.897Z,17.25
2022-08-28T19:42:51.912Z,17.22
2022-08-28T19:45:19.725Z,17.17
2022-08-28T19:47:47.065Z,17.11
2022-08-28T19:50:14.860Z,17.11
2022-08-28T19:52:43.328Z,17.02
2022-08-28T19:55:18.257Z,17.04
2022-08-28T19:57:46.800Z,17.01
2022-08-28T20:00:15.084Z,16.93
2022-08-28T20:02:41.578Z,16.95
2022-08-28T20:05:08.819Z,16.84
2022-08-28T20:07:35.411Z,16.78
2022-08-28T20:10:02.107Z,16.74
2022-08-28T20:12:28.798Z,16.71
2022-08-28T20:14:59.035Z,16.62
2022-08-28T20:17:29.317Z,16.60
2022-08-28T20:20:02.434Z,16.54
2022-08-28T20:22:31.783Z,16.53
2022-08-28T20:24:58.771Z,16.47
2022-08-28T20:27:25.876Z,16.44
2022-08-28T20:29:52.616Z,16.40
2022-08-28T20:32:19.616Z,16.35
2022-08-28T20:34:46.156Z,16.30
2022-08-28T20:37:12.713Z,16.34
2022-08-28T20:39:41.660Z,16.41
2022-08-28T20:42:09.780Z,16.45
2022-08-28T20:44:36.547Z,16.47
2022-08-28T20:47:03.500Z,16.44
2022-08-28T20:49:30.104Z,16.44
2022-08-28T20:51:57.478Z,16.39
2022-08-28T20:54:33.494Z,16.37
2022-08-28T20:57:04.388Z,16.28
2022-08-28T20:59:39.368Z,16.27
2022-08-28T21:02:19.978Z,16.27
2022-08-28T21:04:47.814Z,16.21
2022-08-28T21:07:16.488Z,16.12
2022-08-28T21:10:05.720Z,16.13
2022-08-28T21:12:30.344Z,16.17
2022-08-28T21:14:57.127Z,16.12
2022-08-28T21:17:29.687Z,16.11
2022-08-28T21:19:58.924Z,16.12
2022-08-28T21:22:25.447Z,16.09
2022-08-28T21:24:51.966Z,16.13
2022-08-28T21:27:18.780Z,16.02
2022-08-28T21:29:46.031Z,15.93
2022-08-28T21:32:13.126Z,15.91
2022-08-28T21:34:39.820Z,15.91
2022-08-28T21:37:06.535Z,15.93
2022-08-28T21:39:33.404Z,15.92
2022-08-28T21:42:00.087Z,15.91
2022-08-28T21:44:26.708Z,15.87
2022-08-28T21:46:53.355Z,15.85
2022-08-28T21:49:20.409Z,15.89
2022-08-28T21:51:47.036Z,15.87
2022-08-28T21:54:13.674Z,15.84
2022-08-28T21:56:40.372Z,15.82
2022-08-28T21:59:07.126Z,15.77
2022-08-28T22:01:34.177Z,15.66
2022-08-28T22:04:00.924Z,15.62
2022-08-28T22:06:27.473Z,15.58
2022-08-28T22:08:55.058Z,15.57
2022-08-28T22:11:24.891Z,15.60
2022-08-28T22:13:52.897Z,15.56
2022-08-28T22:16:20.253Z,15.53
2022-08-28T22:18:47.144Z,15.60
2022-08-28T22:21:33.931Z,15.62
2022-08-28T22:24:01.036Z,15.72
2022-08-28T22:26:27.687Z,15.77
2022-08-28T22:28:54.789Z,15.82
2022-08-28T22:31:21.702Z,15.80
2022-08-28T22:33:48.887Z,15.77
2022-08-28T22:36:15.472Z,15.74
2022-08-28T22:38:42.259Z,15.72
2022-08-28T22:41:16.285Z,15.71
2022-08-28T22:43:43.068Z,15.78
2022-08-28T22:46:09.757Z,15.87
2022-08-28T22:48:36.368Z,15.90
2022-08-28T22:51:09.318Z,15.91
2022-08-28T22:53:36.415Z,15.88
2022-08-28T22:56:03.687Z,15.85
2022-08-28T22:58:32.623Z,15.87
2022-08-28T23:01:05.117Z,15.92
2022-08-28T23:03:32.071Z,15.96
2022-08-28T23:05:58.861Z,15.98
2022-08-28T23:08:25.740Z,15.96
2022-08-28T23:10:59.753Z,15.96
2022-08-28T23:13:26.884Z,15.98
2022-08-28T23:15:53.465Z,16.01
2022-08-28T23:18:21.100Z,15.95
2022-08-28T23:20:47.929Z,15.92
2022-08-28T23:23:18.420Z,15.94
2022-08-28T23:25:44.967Z,15.90
2022-08-28T23:28:11.606Z,15.84
2022-08-28T23:30:39.075Z,15.75
2022-08-28T23:33:08.401Z,15.69
2022-08-28T23:35:36.116Z,15.63
2022-08-28T23:38:03.698Z,15.57
2022-08-28T23:40:30.634Z,15.52
2022-08-28T23:42:58.049Z,15.44
2022-08-28T23:45:26.286Z,15.39
2022-08-28T23:47:54.094Z,15.31
2022-08-28T23:50:22.091Z,15.31
2022-08-28T23:52:49.500Z,15.19
2022-08-28T23:55:19.226Z,15.17
2022-08-28T23:57:46.023Z,15.09
